Time;durP1;ratioP1;P1;durP2;ratioP2;P2;SDS_P1;SDS_P2;PMS_P1;PMS_P2;Temp;Humidity;BMP_temperature;BMP_pressure;BME280_temperature;BME280_humidity;BME280_pressure;Samples;Min_cycle;Max_cycle;Signal;HPM_P1;HPM_P2
2021/04/23 00:08:52;;;;;;;10.10;5.17;;;;;;;3.67;100.00;100566.19;21121946;28;20186;-64
2021/04/23 00:18:52;;;;;;;10.37;5.50;;;;;;;3.61;100.00;100565.50;21126242;28;20186;-54
2021/04/23 00:28:53;;;;;;;9.32;5.93;;;;;;;3.57;100.00;100568.28;21125091;28;20619;-57
2021/04/23 00:38:54;;;;;;;8.40;5.00;;;;;;;3.32;100.00;100533.00;21124695;28;20204;-54
2021/04/23 00:48:55;;;;;;;10.70;5.90;;;;;;;3.48;100.00;100579.13;21075749;28;20179;-56
2021/04/23 01:08:52;;;;;;;8.53;5.30;;;;;;;3.32;100.00;100572.56;21186220;27;876711;-58
2021/04/23 01:18:53;;;;;;;8.77;5.63;;;;;;;3.22;100.00;100579.91;21128494;28;20178;-58
2021/04/23 01:28:55;;;;;;;9.20;6.07;;;;;;;3.16;100.00;100583.56;21128510;28;20613;-54
2021/04/23 01:38:55;;;;;;;9.80;6.00;;;;;;;3.10;100.00;100583.78;21126818;28;20174;-53
2021/04/23 01:48:56;;;;;;;9.07;5.43;;;;;;;3.00;100.00;100598.13;21127618;28;20174;-53
2021/04/23 01:58:56;;;;;;;9.83;5.63;;;;;;;2.87;100.00;100588.84;21107230;28;20182;-53
2021/04/23 02:08:57;;;;;;;7.00;5.03;;;;;;;2.78;100.00;100597.84;21123981;28;20249;-55
2021/04/23 02:18:58;;;;;;;9.50;4.75;;;;;;;2.70;100.00;100612.16;21074821;28;20182;-59
2021/04/23 02:28:58;;;;;;;7.93;5.63;;;;;;;2.63;100.00;100607.97;20888672;28;20200;-63
2021/04/23 02:38:59;;;;;;;8.70;5.33;;;;;;;2.56;100.00;100627.47;20887774;28;20196;-62
2021/04/23 02:49:00;;;;;;;11.27;5.33;;;;;;;2.54;100.00;100625.75;20888181;28;20506;-73
2021/04/23 02:59:03;;;;;;;12.13;6.27;;;;;;;2.58;100.00;100628.31;21025655;28;20202;-72
2021/04/23 03:09:06;;;;;;;10.07;5.60;;;;;;;2.50;100.00;100637.28;21063718;28;20493;-55
2021/04/23 03:19:18;;;;;;;9.93;5.57;;;;;;;2.38;100.00;100645.50;21045314;28;20624;-71
2021/04/23 03:29:19;;;;;;;9.90;5.40;;;;;;;2.31;100.00;100646.53;21061401;28;20178;-75
2021/04/23 03:39:19;;;;;;;7.85;5.63;;;;;;;2.32;100.00;100656.19;21062434;28;20209;-71
2021/04/23 03:49:20;;;;;;;8.83;5.50;;;;;;;2.37;100.00;100669.25;21061972;28;20179;-68
2021/04/23 03:59:21;;;;;;;6.70;4.73;;;;;;;2.54;100.00;100675.78;21061326;28;20444;-63
2021/04/23 04:09:21;;;;;;;9.13;5.33;;;;;;;3.14;97.99;100696.13;21060407;28;20429;-74
2021/04/23 04:19:22;;;;;;;8.50;5.87;;;;;;;3.82;93.79;100689.78;21041912;28;20226;-72
2021/04/23 04:29:22;;;;;;;7.47;4.57;;;;;;;4.39;88.05;100700.25;21058362;28;20177;-72
2021/04/23 04:39:23;;;;;;;9.87;4.80;;;;;;;4.81;85.78;100718.25;20978584;28;20587;-59
2021/04/23 04:49:24;;;;;;;8.00;5.43;;;;;;;4.75;85.42;100727.22;21004333;28;20217;-53
2021/04/23 04:59:24;;;;;;;7.50;4.80;;;;;;;4.79;86.01;100738.56;21000214;28;21004;-57
2021/04/23 05:09:25;;;;;;;8.47;5.03;;;;;;;4.88;86.32;100738.25;21007282;28;20192;-57
2021/04/23 05:19:25;;;;;;;9.50;5.67;;;;;;;5.11;85.00;100743.63;21001495;28;20576;-70
2021/04/23 05:29:26;;;;;;;8.17;5.60;;;;;;;5.43;85.02;100753.91;21006709;28;20431;-52
2021/04/23 05:39:27;;;;;;;9.80;6.03;;;;;;;5.66;84.20;100760.16;21013980;28;20202;-72
2021/04/23 05:49:28;;;;;;;11.87;5.73;;;;;;;5.94;82.70;100754.69;21005940;28;20894;-71
2021/04/23 05:59:28;;;;;;;8.47;5.53;;;;;;;6.40;79.73;100775.00;21016230;28;21218;-58
2021/04/23 06:09:29;;;;;;;10.95;6.10;;;;;;;6.64;80.14;100766.03;21019024;28;20674;-64
2021/04/23 06:19:31;;;;;;;10.75;5.95;;;;;;;6.97;77.26;100770.88;21033288;28;20202;-58
2021/04/23 06:29:33;;;;;;;7.77;5.27;;;;;;;7.00;77.17;100784.03;20997158;28;20213;-53
2021/04/23 06:39:33;;;;;;;8.03;5.50;;;;;;;7.66;75.86;100777.56;20987603;28;20474;-55
2021/04/23 06:49:37;;;;;;;6.20;4.63;;;;;;;8.26;72.93;100783.63;21006787;28;20179;-60
2021/04/23 06:59:37;;;;;;;8.37;5.20;;;;;;;8.38;71.74;100787.53;20972273;28;21551;-57
2021/04/23 07:09:38;;;;;;;12.00;5.37;;;;;;;8.47;68.88;100776.44;21003171;28;20195;-61
2021/04/23 07:19:39;;;;;;;8.47;5.00;;;;;;;9.17;68.10;100788.94;20984244;28;21568;-65
2021/04/23 07:29:39;;;;;;;9.27;4.43;;;;;;;9.20;64.28;100781.63;21006901;28;20454;-57
2021/04/23 07:39:39;;;;;;;6.30;4.50;;;;;;;9.19;66.07;100763.06;20990361;28;21305;-56
2021/04/23 07:49:42;;;;;;;6.07;3.87;;;;;;;8.87;66.17;100765.56;21001571;28;20808;-58
2021/04/23 07:59:42;;;;;;;8.20;4.23;;;;;;;8.87;67.39;100770.03;20993854;28;20272;-55
2021/04/23 08:09:43;;;;;;;6.47;4.13;;;;;;;9.24;63.24;100772.56;20991849;28;20283;-55
2021/04/23 08:19:43;;;;;;;4.93;3.77;;;;;;;8.98;62.80;100768.56;20975587;28;20220;-57
2021/04/23 08:29:44;;;;;;;7.07;3.93;;;;;;;8.95;65.45;100747.41;20995377;28;20206;-56
2021/04/23 08:39:45;;;;;;;7.87;4.70;;;;;;;9.52;62.97;100771.13;21024388;28;20458;-57
2021/04/23 08:49:46;;;;;;;6.80;3.77;;;;;;;10.33;56.02;100749.78;21013911;28;20203;-74
2021/04/23 08:59:47;;;;;;;5.80;3.10;;;;;;;9.56;57.14;100770.88;20982983;28;20241;-77
2021/04/23 09:09:48;;;;;;;5.75;3.00;;;;;;;9.01;57.39;100757.75;20960888;28;20677;-74
2021/04/23 09:19:49;;;;;;;4.93;3.13;;;;;;;9.21;58.19;100753.22;20975500;28;20209;-55
2021/04/23 09:29:52;;;;;;;3.87;2.30;;;;;;;9.62;58.46;100732.41;20979889;28;20180;-61
2021/04/23 09:40:06;;;;;;;6.17;3.00;;;;;;;10.84;54.18;100721.06;20967287;28;20210;-62
2021/04/23 09:50:07;;;;;;;4.60;2.07;;;;;;;10.79;51.28;100696.44;20966227;28;20244;-72
2021/04/23 10:00:11;;;;;;;3.67;2.10;;;;;;;10.40;52.41;100688.94;20978807;28;20230;-60
2021/04/23 10:10:12;;;;;;;3.03;2.10;;;;;;;11.46;50.58;100714.59;20969737;28;20607;-81
2021/04/23 10:20:19;;;;;;;3.33;2.83;;;;;;;11.22;51.39;100677.84;20970592;28;20206;-71
2021/04/23 10:30:32;;;;;;;5.60;2.30;;;;;;;10.57;49.09;100765.34;20987449;28;20179;-56
2021/04/23 10:40:33;;;;;;;4.27;2.10;;;;;;;6.69;74.79;100798.53;20966970;28;20235;-73
2021/04/23 10:50:45;;;;;;;7.33;4.50;;;;;;;4.72;98.21;100769.63;20982377;28;20190;-60
2021/04/23 11:00:49;;;;;;;3.63;2.63;;;;;;;4.91;100.00;100825.44;20965477;28;20232;-60
2021/04/23 11:21:31;;;;;;;8.77;5.00;;;;;;;4.05;100.00;100924.94;20970572;28;20210;-58
2021/04/23 11:41:29;;;;;;;11.13;7.70;;;;;;;5.00;100.00;100883.28;21124926;27;20525;-65
2021/04/23 12:01:37;;;;;;;7.50;4.90;;;;;;;5.10;100.00;100903.25;21045009;28;20614;-54
2021/04/23 12:11:38;;;;;;;6.80;4.73;;;;;;;5.74;100.00;100886.06;21023088;28;20593;-56
2021/04/23 12:21:38;;;;;;;8.10;5.23;;;;;;;6.14;100.00;100856.38;21075959;28;20228;-63
2021/04/23 12:31:40;;;;;;;8.10;5.20;;;;;;;6.25;100.00;100849.81;21022729;28;20178;-58
2021/04/23 12:42:08;;;;;;;7.53;5.93;;;;;;;6.88;100.00;100877.38;21072716;28;20236;-57
2021/04/23 12:52:20;;;;;;;7.03;5.40;;;;;;;6.84;100.00;100850.97;20930365;28;20227;-66
2021/04/23 13:02:21;;;;;;;7.03;4.87;;;;;;;6.88;100.00;100850.84;20938318;28;20203;-60
2021/04/23 13:12:24;;;;;;;8.80;5.50;;;;;;;7.08;100.00;100858.84;20882869;28;20227;-63
2021/04/23 13:22:33;;;;;;;4.07;3.23;;;;;;;7.08;100.00;100837.63;20894080;28;20195;-72
2021/04/23 13:32:54;;;;;;;6.33;4.20;;;;;;;6.99;100.00;100827.41;20981322;28;20212;-58
2021/04/23 13:43:09;;;;;;;3.00;2.80;;;;;;;7.32;100.00;100851.66;20960571;28;20171;-54
2021/04/23 13:53:16;;;;;;;1.80;1.70;;;;;;;8.20;100.00;100853.91;20951626;28;20666;-71
2021/04/23 14:03:17;;;;;;;2.70;2.27;;;;;;;8.40;95.24;100871.63;20960942;28;20280;-55
2021/04/23 14:13:18;;;;;;;2.40;1.73;;;;;;;6.67;93.26;100917.06;20981574;28;20732;-60
2021/04/23 14:23:18;;;;;;;5.63;1.87;;;;;;;5.48;93.95;100946.97;20956630;28;20198;-58
2021/04/23 14:33:19;;;;;;;6.40;2.90;;;;;;;3.73;100.00;100954.88;20972796;28;20212;-56
2021/04/23 14:43:19;;;;;;;3.27;2.60;;;;;;;3.34;100.00;100966.41;20966087;28;20376;-53
2021/04/23 14:53:21;;;;;;;3.63;2.83;;;;;;;3.91;100.00;100953.50;20964286;28;20230;-56
2021/04/23 15:03:22;;;;;;;3.93;2.70;;;;;;;4.13;100.00;100930.00;20966864;28;20187;-53
2021/04/23 15:13:24;;;;;;;3.13;2.83;;;;;;;4.39;100.00;100935.41;20957826;28;20223;-63
2021/04/23 15:23:24;;;;;;;5.50;3.83;;;;;;;4.49;100.00;100921.00;20973153;28;20463;-54
2021/04/23 15:33:25;;;;;;;9.53;6.33;;;;;;;4.40;100.00;100963.56;20939070;28;20210;-52
2021/04/23 15:43:26;;;;;;;4.83;3.20;;;;;;;4.08;100.00;100958.34;20859657;28;20322;-52
2021/04/23 15:53:29;;;;;;;4.33;3.20;;;;;;;4.12;100.00;100942.34;20838478;28;20290;-63
2021/04/23 16:03:29;;;;;;;10.60;7.00;;;;;;;4.17;100.00;100921.09;20883865;28;20906;-54
2021/04/23 16:13:32;;;;;;;6.00;4.55;;;;;;;4.35;100.00;100918.78;20929947;28;20241;-63
2021/04/23 16:23:32;;;;;;;7.53;4.30;;;;;;;4.46;100.00;100921.13;20925152;28;20265;-57
2021/04/23 16:33:33;;;;;;;10.10;5.47;;;;;;;4.41;100.00;100907.16;20912264;28;20214;-52
2021/04/23 16:43:34;;;;;;;12.63;8.33;;;;;;;4.58;100.00;100910.19;20911999;28;20290;-60
2021/04/23 16:53:35;;;;;;;14.40;8.17;;;;;;;4.75;100.00;100937.88;20931867;28;20239;-62
2021/04/23 17:03:36;;;;;;;6.70;5.90;;;;;;;4.54;100.00;100934.09;20917488;28;20193;-58
2021/04/23 17:13:37;;;;;;;9.63;6.00;;;;;;;4.55;100.00;100947.28;20911807;28;20638;-61
2021/04/23 17:43:28;;;;;;;11.13;6.43;;;;;;;4.22;100.00;100969.38;20975025;28;21361;-57
2021/04/23 17:53:29;;;;;;;13.43;7.82;;;;;;;3.95;100.00;100971.00;20991629;28;20231;-53
2021/04/23 18:03:29;;;;;;;126.80;83.83;;;;;;;3.91;100.00;101004.53;20972370;28;20688;-52
2021/04/23 18:13:30;;;;;;;397.03;249.53;;;;;;;4.06;100.00;101003.25;20992122;28;20757;-53
2021/04/23 18:23:31;;;;;;;334.93;229.23;;;;;;;4.20;100.00;101008.19;20974219;28;20437;-55
2021/04/23 18:53:25;;;;;;;79.93;54.03;;;;;;;4.04;100.00;101023.56;20907679;28;20566;-58
2021/04/23 19:03:26;;;;;;;21.80;14.60;;;;;;;3.94;100.00;101033.50;20887787;28;20706;-60
2021/04/23 19:13:27;;;;;;;31.70;15.93;;;;;;;4.01;100.00;101038.59;20907562;28;20263;-56
2021/04/23 19:23:28;;;;;;;22.20;13.00;;;;;;;3.86;100.00;101050.44;20888674;28;20196;-61
2021/04/23 19:33:29;;;;;;;21.42;12.55;;;;;;;3.76;100.00;101073.53;20900060;28;20257;-56
2021/04/23 19:43:30;;;;;;;12.93;9.20;;;;;;;3.87;100.00;101071.50;20893650;28;20946;-62
2021/04/23 19:53:31;;;;;;;14.07;9.13;;;;;;;3.70;100.00;101064.91;20895502;28;20196;-62
2021/04/23 20:03:31;;;;;;;16.33;9.50;;;;;;;3.65;100.00;101062.38;20850629;28;20223;-57
2021/04/23 20:13:32;;;;;;;18.20;11.05;;;;;;;3.49;100.00;101045.19;20833427;28;20187;-53
2021/04/23 20:23:33;;;;;;;20.53;11.13;;;;;;;3.45;100.00;101057.59;20850110;28;20177;-56
2021/04/23 20:33:34;;;;;;;18.50;11.10;;;;;;;3.34;100.00;101056.09;20679241;28;20372;-56
2021/04/23 20:53:42;;;;;;;30.33;16.23;;;;;;;2.73;100.00;101046.88;20694564;27;7822359;-63
2021/04/23 21:03:43;;;;;;;26.80;15.30;;;;;;;2.54;100.00;101044.59;20961435;28;20975;-53
2021/04/23 21:13:44;;;;;;;37.30;18.40;;;;;;;2.36;100.00;101041.47;20961691;28;20222;-55
2021/04/23 21:23:44;;;;;;;49.10;26.53;;;;;;;2.31;100.00;101033.66;20954230;28;20187;-55
2021/04/23 21:33:44;;;;;;;42.00;23.10;;;;;;;2.30;100.00;101042.44;20964820;28;20190;-54
2021/04/23 22:38:30;;;;;;;59.87;30.50;;;;;;;1.60;100.00;101019.13;20892640;27;20570;-58
2021/04/23 22:48:30;;;;;;;55.40;27.77;;;;;;;1.57;100.00;101012.16;20884856;28;20262;-59
2021/04/23 22:58:31;;;;;;;66.40;30.73;;;;;;;1.57;100.00;101006.06;20884198;28;20458;-58
2021/04/23 23:18:25;;;;;;;52.30;23.67;;;;;;;1.46;100.00;101003.56;20895462;27;21073;-58
2021/04/23 23:28:25;;;;;;;53.60;25.57;;;;;;;1.36;100.00;101004.63;20885086;28;20223;-58
2021/04/23 23:38:26;;;;;;;58.40;27.13;;;;;;;1.26;100.00;100997.78;20884645;28;20458;-61
2021/04/23 23:48:27;;;;;;;57.20;26.97;;;;;;;1.20;100.00;100984.72;20883373;28;20283;-60
2021/04/23 23:58:29;;;;;;;49.93;25.50;;;;;;;1.17;100.00;100985.66;20881466;28;20223;-58
